sensor_id;sensor_type;location;lat;lon;timestamp;pressure;altitude;pressure_sealevel;temperature;humidity
64189;BME280;50493;50.970;10.082;2024-01-16T00:00:30;98191.44;;;1.02;57.95
64189;BME280;50493;50.970;10.082;2024-01-16T00:02:56;98193.16;;;1.07;63.63
64189;BME280;50493;50.970;10.082;2024-01-16T00:05:21;98194.94;;;0.74;64.02
64189;BME280;50493;50.970;10.082;2024-01-16T00:07:46;98202.66;;;0.49;68.56
64189;BME280;50493;50.970;10.082;2024-01-16T00:10:13;98196.63;;;0.71;64.58
64189;BME280;50493;50.970;10.082;2024-01-16T00:12:39;98205.22;;;0.44;67.94
64189;BME280;50493;50.970;10.082;2024-01-16T00:15:06;98205.22;;;0.67;64.48
64189;BME280;50493;50.970;10.082;2024-01-16T00:17:31;98200.94;;;0.52;66.61
64189;BME280;50493;50.970;10.082;2024-01-16T00:19:57;98212.94;;;0.46;65.31
64189;BME280;50493;50.970;10.082;2024-01-16T00:22:25;98215.50;;;0.30;68.07
64189;BME280;50493;50.970;10.082;2024-01-16T00:24:51;98221.50;;;0.51;68.31
64189;BME280;50493;50.970;10.082;2024-01-16T00:27:18;98222.38;;;0.39;64.99
64189;BME280;50493;50.970;10.082;2024-01-16T00:29:43;98225.78;;;0.36;67.76
64189;BME280;50493;50.970;10.082;2024-01-16T00:32:09;98227.50;;;0.64;66.43
64189;BME280;50493;50.970;10.082;2024-01-16T00:34:34;98229.22;;;0.29;69.07
64189;BME280;50493;50.970;10.082;2024-01-16T00:36:59;98241.22;;;0.61;66.89
64189;BME280;50493;50.970;10.082;2024-01-16T00:39:25;98242.06;;;0.57;67.13
64189;BME280;50493;50.970;10.082;2024-01-16T00:41:51;98243.81;;;0.66;67.32
64189;BME280;50493;50.970;10.082;2024-01-16T00:44:18;98237.78;;;0.75;65.74
64189;BME280;50493;50.970;10.082;2024-01-16T00:46:43;98245.44;;;0.08;66.98
64189;BME280;50493;50.970;10.082;2024-01-16T00:49:08;98237.78;;;0.22;69.80
64189;BME280;50493;50.970;10.082;2024-01-16T00:51:34;98256.53;;;-0.10;71.96
64189;BME280;50493;50.970;10.082;2024-01-16T00:53:59;98251.38;;;-0.22;71.81
64189;BME280;50493;50.970;10.082;2024-01-16T00:56:25;98261.56;;;-0.41;73.55
64189;BME280;50493;50.970;10.082;2024-01-16T00:58:52;98268.53;;;-0.01;70.37
64189;BME280;50493;50.970;10.082;2024-01-16T01:01:20;98259.22;;;0.36;65.37
64189;BME280;50493;50.970;10.082;2024-01-16T01:03:45;98261.75;;;0.12;67.20
64189;BME280;50493;50.970;10.082;2024-01-16T01:06:11;98274.56;;;0.04;71.12
64189;BME280;50493;50.970;10.082;2024-01-16T01:08:36;98284.00;;;0.03;70.61
64189;BME280;50493;50.970;10.082;2024-01-16T01:11:02;98289.94;;;-0.05;71.44
64189;BME280;50493;50.970;10.082;2024-01-16T01:13:28;98278.94;;;0.47;67.27
64189;BME280;50493;50.970;10.082;2024-01-16T01:15:53;98285.72;;;0.14;68.15
64189;BME280;50493;50.970;10.082;2024-01-16T01:18:20;98284.03;;;0.31;67.58
64189;BME280;50493;50.970;10.082;2024-01-16T01:20:45;98292.66;;;0.70;66.39
64189;BME280;50493;50.970;10.082;2024-01-16T01:23:10;98289.22;;;0.48;68.68
64189;BME280;50493;50.970;10.082;2024-01-16T01:25:36;98290.09;;;0.80;63.67
64189;BME280;50493;50.970;10.082;2024-01-16T01:28:01;98285.81;;;0.76;65.50
64189;BME280;50493;50.970;10.082;2024-01-16T01:30:27;98296.06;;;0.39;68.54
64189;BME280;50493;50.970;10.082;2024-01-16T01:32:52;98304.66;;;0.53;67.32
64189;BME280;50493;50.970;10.082;2024-01-16T01:35:19;98303.75;;;0.34;69.42
64189;BME280;50493;50.970;10.082;2024-01-16T01:37:45;98307.16;;;0.16;69.36
64189;BME280;50493;50.970;10.082;2024-01-16T01:40:10;98313.06;;;-0.11;71.64
64189;BME280;50493;50.970;10.082;2024-01-16T01:42:37;98318.25;;;0.02;69.95
64189;BME280;50493;50.970;10.082;2024-01-16T01:45:03;98321.69;;;0.05;70.50
64189;BME280;50493;50.970;10.082;2024-01-16T01:47:29;98326.75;;;-0.08;70.86
64189;BME280;50493;50.970;10.082;2024-01-16T01:49:55;98329.03;;;-0.65;73.96
64189;BME280;50493;50.970;10.082;2024-01-16T01:52:22;98329.03;;;-0.64;74.19
64189;BME280;50493;50.970;10.082;2024-01-16T01:54:48;98329.84;;;-0.72;74.73
64189;BME280;50493;50.970;10.082;2024-01-16T01:57:14;98333.31;;;-0.62;73.58
64189;BME280;50493;50.970;10.082;2024-01-16T01:59:39;98337.75;;;-0.43;71.30
64189;BME280;50493;50.970;10.082;2024-01-16T02:02:05;98343.59;;;-0.59;74.10
64189;BME280;50493;50.970;10.082;2024-01-16T02:04:31;98338.53;;;-0.53;73.23
64189;BME280;50493;50.970;10.082;2024-01-16T02:06:56;98343.78;;;-0.28;71.66
64189;BME280;50493;50.970;10.082;2024-01-16T02:09:24;98343.00;;;-0.18;71.98
64189;BME280;50493;50.970;10.082;2024-01-16T02:11:49;98354.06;;;-0.25;72.03
64189;BME280;50493;50.970;10.082;2024-01-16T02:14:14;98351.63;;;-0.01;69.48
64189;BME280;50493;50.970;10.082;2024-01-16T02:16:41;98359.47;;;0.30;66.60
64189;BME280;50493;50.970;10.082;2024-01-16T02:19:08;98356.69;;;-0.22;64.77
64189;BME280;50493;50.970;10.082;2024-01-16T02:21:36;98353.34;;;-0.01;69.45
64189;BME280;50493;50.970;10.082;2024-01-16T02:24:05;98363.69;;;0.17;68.96
64189;BME280;50493;50.970;10.082;2024-01-16T02:26:31;98360.25;;;0.08;68.01
64189;BME280;50493;50.970;10.082;2024-01-16T02:28:57;98365.31;;;-0.05;68.30
64189;BME280;50493;50.970;10.082;2024-01-16T02:31:22;98364.44;;;-0.07;70.26
64189;BME280;50493;50.970;10.082;2024-01-16T02:33:47;98355.06;;;-0.02;69.05
64189;BME280;50493;50.970;10.082;2024-01-16T02:36:13;98365.16;;;-0.33;71.66
64189;BME280;50493;50.970;10.082;2024-01-16T02:38:39;98380.50;;;-0.42;70.41
64189;BME280;50493;50.970;10.082;2024-01-16T02:41:07;98366.13;;;-0.18;71.18
64189;BME280;50493;50.970;10.082;2024-01-16T02:43:32;98371.41;;;0.16;67.84
64189;BME280;50493;50.970;10.082;2024-01-16T02:45:57;98385.09;;;0.12;69.27
64189;BME280;50493;50.970;10.082;2024-01-16T02:48:23;98385.06;;;0.07;68.29
64189;BME280;50493;50.970;10.082;2024-01-16T02:50:48;98387.44;;;-0.28;70.42
64189;BME280;50493;50.970;10.082;2024-01-16T02:53:14;98393.47;;;-0.22;70.27
64189;BME280;50493;50.970;10.082;2024-01-16T02:55:39;98390.00;;;-0.35;71.39
64189;BME280;50493;50.970;10.082;2024-01-16T02:58:06;98389.84;;;-0.56;72.74
64189;BME280;50493;50.970;10.082;2024-01-16T03:00:31;98402.09;;;-0.15;68.55
64189;BME280;50493;50.970;10.082;2024-01-16T03:02:57;98400.50;;;0.12;66.02
64189;BME280;50493;50.970;10.082;2024-01-16T03:05:22;98407.34;;;0.10;68.32
64189;BME280;50493;50.970;10.082;2024-01-16T03:07:48;98409.97;;;0.16;66.26
64189;BME280;50493;50.970;10.082;2024-01-16T03:10:13;98410.47;;;-0.47;72.21
64189;BME280;50493;50.970;10.082;2024-01-16T03:12:38;98423.25;;;-0.50;73.26
64189;BME280;50493;50.970;10.082;2024-01-16T03:15:06;98415.03;;;0.03;65.22
64189;BME280;50493;50.970;10.082;2024-01-16T03:17:31;98417.72;;;0.25;68.80
64189;BME280;50493;50.970;10.082;2024-01-16T03:19:56;98421.22;;;0.47;65.49
64189;BME280;50493;50.970;10.082;2024-01-16T03:22:22;98420.22;;;0.13;66.36
64189;BME280;50493;50.970;10.082;2024-01-16T03:24:48;98425.56;;;0.59;64.16
64189;BME280;50493;50.970;10.082;2024-01-16T03:27:13;98422.97;;;0.54;63.64
64189;BME280;50493;50.970;10.082;2024-01-16T03:29:39;98432.25;;;0.25;67.32
64189;BME280;50493;50.970;10.082;2024-01-16T03:32:05;98429.72;;;0.26;67.74
64189;BME280;50493;50.970;10.082;2024-01-16T03:34:31;98431.47;;;0.32;68.21
64189;BME280;50493;50.970;10.082;2024-01-16T03:36:56;98431.59;;;0.83;61.90
64189;BME280;50493;50.970;10.082;2024-01-16T03:39:22;98435.06;;;0.91;64.60
64189;BME280;50493;50.970;10.082;2024-01-16T03:41:47;98425.59;;;0.85;65.00
64189;BME280;50493;50.970;10.082;2024-01-16T03:44:13;98423.09;;;1.21;60.39
64189;BME280;50493;50.970;10.082;2024-01-16T03:46:38;98431.56;;;0.64;65.68
64189;BME280;50493;50.970;10.082;2024-01-16T03:49:05;98429.78;;;0.39;67.42
64189;BME280;50493;50.970;10.082;2024-01-16T03:51:30;98434.16;;;0.67;65.83
64189;BME280;50493;50.970;10.082;2024-01-16T03:53:55;98430.78;;;0.95;63.94
64189;BME280;50493;50.970;10.082;2024-01-16T03:56:22;98424.72;;;0.79;65.01
64189;BME280;50493;50.970;10.082;2024-01-16T03:58:47;98434.16;;;0.63;65.23
64189;BME280;50493;50.970;10.082;2024-01-16T04:01:14;98438.50;;;0.90;62.46
64189;BME280;50493;50.970;10.082;2024-01-16T04:03:40;98436.75;;;0.74;63.69
64189;BME280;50493;50.970;10.082;2024-01-16T04:06:15;98427.34;;;0.93;63.40
64189;BME280;50493;50.970;10.082;2024-01-16T04:08:41;98444.34;;;0.44;67.08
64189;BME280;50493;50.970;10.082;2024-01-16T04:11:11;98435.00;;;0.66;61.70
64189;BME280;50493;50.970;10.082;2024-01-16T04:13:36;98423.09;;;1.09;59.05
64189;BME280;50493;50.970;10.082;2024-01-16T04:16:02;98429.94;;;1.03;60.47
64189;BME280;50493;50.970;10.082;2024-01-16T04:18:27;98424.78;;;0.97;63.66
64189;BME280;50493;50.970;10.082;2024-01-16T04:20:53;98430.69;;;0.64;62.00
64189;BME280;50493;50.970;10.082;2024-01-16T04:23:19;98438.28;;;0.22;67.70
64189;BME280;50493;50.970;10.082;2024-01-16T04:25:45;98433.13;;;0.22;68.56
64189;BME280;50493;50.970;10.082;2024-01-16T04:28:10;98434.81;;;0.23;68.08
64189;BME280;50493;50.970;10.082;2024-01-16T04:30:35;98444.19;;;0.10;65.82
64189;BME280;50493;50.970;10.082;2024-01-16T04:33:01;98439.22;;;0.41;65.51
64189;BME280;50493;50.970;10.082;2024-01-16T04:35:26;98433.03;;;0.07;69.73
64189;BME280;50493;50.970;10.082;2024-01-16T04:37:51;98440.84;;;0.28;67.69
64189;BME280;50493;50.970;10.082;2024-01-16T04:40:18;98440.69;;;-0.01;69.12
64189;BME280;50493;50.970;10.082;2024-01-16T04:42:43;98433.03;;;0.00;69.31
64189;BME280;50493;50.970;10.082;2024-01-16T04:45:09;98430.69;;;0.61;64.62
64189;BME280;50493;50.970;10.082;2024-01-16T04:47:34;98427.16;;;0.35;61.08
64189;BME280;50493;50.970;10.082;2024-01-16T04:50:00;98428.72;;;0.01;68.20
64189;BME280;50493;50.970;10.082;2024-01-16T04:52:25;98427.94;;;0.13;67.12
64189;BME280;50493;50.970;10.082;2024-01-16T04:54:50;98438.16;;;0.00;68.20
64189;BME280;50493;50.970;10.082;2024-01-16T04:57:17;98438.81;;;-0.25;70.84
64189;BME280;50493;50.970;10.082;2024-01-16T04:59:42;98432.09;;;-0.09;69.17
64189;BME280;50493;50.970;10.082;2024-01-16T05:02:08;98436.44;;;0.07;66.03
64189;BME280;50493;50.970;10.082;2024-01-16T05:04:36;98435.38;;;-0.31;69.25
64189;BME280;50493;50.970;10.082;2024-01-16T05:07:01;98436.97;;;-0.50;71.72
64189;BME280;50493;50.970;10.082;2024-01-16T05:09:28;98438.09;;;-0.06;67.30
64189;BME280;50493;50.970;10.082;2024-01-16T05:11:53;98435.59;;;0.07;67.26
64189;BME280;50493;50.970;10.082;2024-01-16T05:14:20;98438.34;;;0.39;66.08
64189;BME280;50493;50.970;10.082;2024-01-16T05:16:50;98426.50;;;0.86;63.15
64189;BME280;50493;50.970;10.082;2024-01-16T05:19:15;98431.63;;;0.89;58.92
64189;BME280;50493;50.970;10.082;2024-01-16T05:21:40;98426.41;;;0.53;61.53
64189;BME280;50493;50.970;10.082;2024-01-16T05:24:06;98434.06;;;0.50;63.67
64189;BME280;50493;50.970;10.082;2024-01-16T05:26:31;98433.31;;;0.81;60.33
64189;BME280;50493;50.970;10.082;2024-01-16T05:28:56;98437.63;;;0.80;62.15
64189;BME280;50493;50.970;10.082;2024-01-16T05:31:23;98429.84;;;0.63;62.95
64189;BME280;50493;50.970;10.082;2024-01-16T05:33:49;98429.84;;;0.63;59.72
64189;BME280;50493;50.970;10.082;2024-01-16T05:36:14;98437.41;;;0.25;67.21
64189;BME280;50493;50.970;10.082;2024-01-16T05:38:39;98424.72;;;0.79;59.09
64189;BME280;50493;50.970;10.082;2024-01-16T05:41:05;98429.06;;;0.86;62.12
64189;BME280;50493;50.970;10.082;2024-01-16T05:43:30;98432.38;;;0.56;64.22
64189;BME280;50493;50.970;10.082;2024-01-16T05:45:55;98435.06;;;0.97;58.53
64189;BME280;50493;50.970;10.082;2024-01-16T05:48:22;98435.88;;;0.71;61.99
64189;BME280;50493;50.970;10.082;2024-01-16T05:50:47;98435.03;;;0.79;58.80
64189;BME280;50493;50.970;10.082;2024-01-16T05:53:13;98429.94;;;1.03;58.23
64189;BME280;50493;50.970;10.082;2024-01-16T05:55:38;98441.94;;;1.01;57.90
64189;BME280;50493;50.970;10.082;2024-01-16T05:58:04;98435.13;;;1.13;57.44
64189;BME280;50493;50.970;10.082;2024-01-16T06:00:29;98435.94;;;0.90;57.80
64189;BME280;50493;50.970;10.082;2024-01-16T06:02:55;98432.53;;;1.03;55.90
64189;BME280;50493;50.970;10.082;2024-01-16T06:05:21;98441.06;;;0.92;56.49
64189;BME280;50493;50.970;10.082;2024-01-16T06:07:47;98441.06;;;0.93;60.04
64189;BME280;50493;50.970;10.082;2024-01-16T06:10:13;98440.13;;;0.66;60.16
64189;BME280;50493;50.970;10.082;2024-01-16T06:12:39;98448.81;;;0.98;57.48
64189;BME280;50493;50.970;10.082;2024-01-16T06:15:05;98445.38;;;1.07;57.48
64189;BME280;50493;50.970;10.082;2024-01-16T06:17:30;98451.38;;;1.07;56.13
64189;BME280;50493;50.970;10.082;2024-01-16T06:19:56;98447.09;;;1.11;56.53
64189;BME280;50493;50.970;10.082;2024-01-16T06:22:22;98449.69;;;1.20;55.94
64189;BME280;50493;50.970;10.082;2024-01-16T06:24:48;98444.53;;;1.15;56.11
64189;BME280;50493;50.970;10.082;2024-01-16T06:27:13;98447.97;;;1.05;56.67
64189;BME280;50493;50.970;10.082;2024-01-16T06:29:44;98444.41;;;0.57;59.80
64189;BME280;50493;50.970;10.082;2024-01-16T06:32:09;98441.91;;;0.77;56.50
64189;BME280;50493;50.970;10.082;2024-01-16T06:34:34;98441.88;;;0.67;58.33
64189;BME280;50493;50.970;10.082;2024-01-16T06:37:00;98447.03;;;0.77;57.38
64189;BME280;50493;50.970;10.082;2024-01-16T06:39:26;98447.13;;;1.06;55.69
64189;BME280;50493;50.970;10.082;2024-01-16T06:41:52;98440.22;;;0.94;58.45
64189;BME280;50493;50.970;10.082;2024-01-16T06:44:18;98451.38;;;0.90;57.94
64189;BME280;50493;50.970;10.082;2024-01-16T06:46:43;98452.03;;;0.40;63.90
64189;BME280;50493;50.970;10.082;2024-01-16T06:49:08;98453.53;;;-0.06;66.52
64189;BME280;50493;50.970;10.082;2024-01-16T06:51:34;98451.22;;;0.44;64.56
64189;BME280;50493;50.970;10.082;2024-01-16T06:53:59;98451.13;;;0.25;65.49
64189;BME280;50493;50.970;10.082;2024-01-16T06:56:26;98442.72;;;0.66;57.89
64189;BME280;50493;50.970;10.082;2024-01-16T06:58:51;98442.78;;;0.93;57.48
64189;BME280;50493;50.970;10.082;2024-01-16T07:01:18;98452.88;;;0.32;63.52
64189;BME280;50493;50.970;10.082;2024-01-16T07:03:43;98440.94;;;0.53;62.46
64189;BME280;50493;50.970;10.082;2024-01-16T07:06:08;98446.09;;;0.53;62.62
64189;BME280;50493;50.970;10.082;2024-01-16T07:08:33;98451.34;;;0.76;59.25
64189;BME280;50493;50.970;10.082;2024-01-16T07:10:59;98453.81;;;0.47;60.21
64189;BME280;50493;50.970;10.082;2024-01-16T07:13:25;98450.44;;;0.63;57.26
64189;BME280;50493;50.970;10.082;2024-01-16T07:15:51;98452.97;;;0.49;62.17
64189;BME280;50493;50.970;10.082;2024-01-16T07:18:17;98455.56;;;0.60;61.08
64189;BME280;50493;50.970;10.082;2024-01-16T07:20:43;98453.03;;;0.69;58.29
64189;BME280;50493;50.970;10.082;2024-01-16T07:23:08;98454.44;;;0.02;65.57
64189;BME280;50493;50.970;10.082;2024-01-16T07:25:34;98452.16;;;0.67;58.47
64189;BME280;50493;50.970;10.082;2024-01-16T07:27:59;98452.06;;;0.43;64.04
64189;BME280;50493;50.970;10.082;2024-01-16T07:30:26;98455.56;;;0.63;60.76
64189;BME280;50493;50.970;10.082;2024-01-16T07:32:52;98464.09;;;0.53;58.52
64189;BME280;50493;50.970;10.082;2024-01-16T07:35:17;98467.47;;;0.40;60.70
64189;BME280;50493;50.970;10.082;2024-01-16T07:37:42;98473.38;;;0.17;64.77
64189;BME280;50493;50.970;10.082;2024-01-16T07:40:08;98467.44;;;0.30;61.33
64189;BME280;50493;50.970;10.082;2024-01-16T07:42:34;98470.78;;;0.17;63.95
64189;BME280;50493;50.970;10.082;2024-01-16T07:45:00;98475.25;;;0.58;61.54
64189;BME280;50493;50.970;10.082;2024-01-16T07:47:27;98467.53;;;0.60;62.17
64189;BME280;50493;50.970;10.082;2024-01-16T07:49:53;98470.97;;;0.48;63.86
64189;BME280;50493;50.970;10.082;2024-01-16T07:52:18;98467.50;;;0.44;64.11
64189;BME280;50493;50.970;10.082;2024-01-16T07:54:43;98467.47;;;0.36;64.53
64189;BME280;50493;50.970;10.082;2024-01-16T07:57:08;98464.03;;;0.37;61.64
64189;BME280;50493;50.970;10.082;2024-01-16T07:59:34;98464.88;;;0.35;63.18
64189;BME280;50493;50.970;10.082;2024-01-16T08:01:59;98474.28;;;0.31;63.92
64189;BME280;50493;50.970;10.082;2024-01-16T08:04:26;98481.09;;;0.20;64.10
64189;BME280;50493;50.970;10.082;2024-01-16T08:06:52;98481.97;;;0.27;63.64
64189;BME280;50493;50.970;10.082;2024-01-16T08:09:17;98490.47;;;0.18;64.28
64189;BME280;50493;50.970;10.082;2024-01-16T08:11:43;98489.69;;;0.25;64.67
64189;BME280;50493;50.970;10.082;2024-01-16T08:14:08;98491.41;;;0.26;65.23
64189;BME280;50493;50.970;10.082;2024-01-16T08:16:33;98489.09;;;0.82;60.37
64189;BME280;50493;50.970;10.082;2024-01-16T08:18:58;98491.50;;;0.45;63.77
64189;BME280;50493;50.970;10.082;2024-01-16T08:21:25;98491.63;;;0.73;62.13
64189;BME280;50493;50.970;10.082;2024-01-16T08:23:51;98492.56;;;1.04;60.85
64189;BME280;50493;50.970;10.082;2024-01-16T08:26:17;98491.59;;;0.66;63.01
64189;BME280;50493;50.970;10.082;2024-01-16T08:28:42;98497.75;;;1.22;58.53
64189;BME280;50493;50.970;10.082;2024-01-16T08:31:08;98496.91;;;1.31;58.02
64189;BME280;50493;50.970;10.082;2024-01-16T08:33:33;98495.22;;;1.30;58.00
64189;BME280;50493;50.970;10.082;2024-01-16T08:35:59;98505.50;;;1.21;60.34
64189;BME280;50493;50.970;10.082;2024-01-16T08:38:26;98506.34;;;1.37;56.93
64189;BME280;50493;50.970;10.082;2024-01-16T08:40:51;98502.09;;;1.75;55.47
64189;BME280;50493;50.970;10.082;2024-01-16T08:43:16;98502.09;;;1.47;55.27
64189;BME280;50493;50.970;10.082;2024-01-16T08:45:42;98502.97;;;1.64;56.47
64189;BME280;50493;50.970;10.082;2024-01-16T08:48:07;98516.69;;;1.40;59.18
64189;BME280;50493;50.970;10.082;2024-01-16T08:50:32;98513.25;;;1.58;56.05
64189;BME280;50493;50.970;10.082;2024-01-16T08:52:58;98510.69;;;1.58;55.62
64189;BME280;50493;50.970;10.082;2024-01-16T08:55:25;98520.94;;;1.24;57.99
64189;BME280;50493;50.970;10.082;2024-01-16T08:57:50;98518.34;;;1.13;60.24
64189;BME280;50493;50.970;10.082;2024-01-16T09:00:16;98517.50;;;1.13;60.34
64189;BME280;50493;50.970;10.082;2024-01-16T09:02:41;98524.38;;;1.20;59.08
64189;BME280;50493;50.970;10.082;2024-01-16T09:05:07;98524.38;;;1.20;59.81
64189;BME280;50493;50.970;10.082;2024-01-16T09:07:32;98517.56;;;1.71;56.03
64189;BME280;50493;50.970;10.082;2024-01-16T09:09:58;98524.41;;;1.69;55.80
64189;BME280;50493;50.970;10.082;2024-01-16T09:12:24;98515.81;;;1.83;54.36
64189;BME280;50493;50.970;10.082;2024-01-16T09:14:51;98520.97;;;1.44;57.15
64189;BME280;50493;50.970;10.082;2024-01-16T09:17:16;98516.66;;;1.45;57.04
64189;BME280;50493;50.970;10.082;2024-01-16T09:19:42;98515.81;;;1.43;56.69
64189;BME280;50493;50.970;10.082;2024-01-16T09:22:07;98509.81;;;1.62;56.25
64189;BME280;50493;50.970;10.082;2024-01-16T09:24:32;98515.81;;;1.60;58.69
64189;BME280;50493;50.970;10.082;2024-01-16T09:26:58;98515.78;;;1.27;59.67
64189;BME280;50493;50.970;10.082;2024-01-16T09:29:24;98520.94;;;1.39;58.27
64189;BME280;50493;50.970;10.082;2024-01-16T09:31:50;98527.84;;;1.71;57.37
64189;BME280;50493;50.970;10.082;2024-01-16T09:34:15;98532.06;;;1.14;59.62
64189;BME280;50493;50.970;10.082;2024-01-16T09:36:42;98535.47;;;1.11;60.75
64189;BME280;50493;50.970;10.082;2024-01-16T09:39:08;98533.00;;;1.76;57.31
64189;BME280;50493;50.970;10.082;2024-01-16T09:41:34;98525.28;;;1.90;55.92
64189;BME280;50493;50.970;10.082;2024-01-16T09:43:59;98530.41;;;1.98;54.27
64189;BME280;50493;50.970;10.082;2024-01-16T09:46:26;98530.44;;;1.64;55.66
64189;BME280;50493;50.970;10.082;2024-01-16T09:48:53;98527.88;;;1.90;54.75
64189;BME280;50493;50.970;10.082;2024-01-16T09:51:19;98538.97;;;1.29;59.38
64189;BME280;50493;50.970;10.082;2024-01-16T09:53:45;98536.09;;;0.47;63.56
64189;BME280;50493;50.970;10.082;2024-01-16T09:56:14;98532.06;;;1.11;59.56
64189;BME280;50493;50.970;10.082;2024-01-16T09:58:40;98525.13;;;0.90;57.95
64189;BME280;50493;50.970;10.082;2024-01-16T10:01:06;98529.44;;;1.01;61.69
64189;BME280;50493;50.970;10.082;2024-01-16T10:03:34;98541.47;;;1.05;60.98
64189;BME280;50493;50.970;10.082;2024-01-16T10:06:01;98537.75;;;0.39;65.13
64189;BME280;50493;50.970;10.082;2024-01-16T10:08:30;98539.38;;;0.21;65.20
64189;BME280;50493;50.970;10.082;2024-01-16T10:10:56;98541.94;;;0.24;65.74
64189;BME280;50493;50.970;10.082;2024-01-16T10:13:22;98527.47;;;0.39;64.83
64189;BME280;50493;50.970;10.082;2024-01-16T10:15:49;98532.72;;;0.60;61.98
64189;BME280;50493;50.970;10.082;2024-01-16T10:18:25;98534.56;;;0.86;62.33
64189;BME280;50493;50.970;10.082;2024-01-16T10:20:52;98533.63;;;0.70;63.27
64189;BME280;50493;50.970;10.082;2024-01-16T10:23:24;98530.22;;;0.73;63.45
64189;BME280;50493;50.970;10.082;2024-01-16T10:26:07;98539.03;;;1.53;56.74
64189;BME280;50493;50.970;10.082;2024-01-16T10:28:32;98526.13;;;1.70;55.41
64189;BME280;50493;50.970;10.082;2024-01-16T10:31:01;98532.97;;;1.31;61.20
64189;BME280;50493;50.970;10.082;2024-01-16T10:33:27;98530.41;;;1.54;56.97
64189;BME280;50493;50.970;10.082;2024-01-16T10:36:07;98536.44;;;1.60;57.75
64189;BME280;50493;50.970;10.082;2024-01-16T10:38:34;98527.84;;;1.65;55.25
64189;BME280;50493;50.970;10.082;2024-01-16T10:41:08;98524.41;;;1.77;58.63
64189;BME280;50493;50.970;10.082;2024-01-16T10:43:34;98532.13;;;1.59;60.15
64189;BME280;50493;50.970;10.082;2024-01-16T10:46:07;98527.81;;;1.44;60.70
64189;BME280;50493;50.970;10.082;2024-01-16T10:48:33;98534.72;;;1.38;61.96
64189;BME280;50493;50.970;10.082;2024-01-16T10:51:00;98529.50;;;1.17;61.67
64189;BME280;50493;50.970;10.082;2024-01-16T10:53:31;98527.00;;;1.72;54.61
64189;BME280;50493;50.970;10.082;2024-01-16T10:55:59;98532.97;;;1.34;59.05
64189;BME280;50493;50.970;10.082;2024-01-16T10:58:25;98539.72;;;0.92;62.11
64189;BME280;50493;50.970;10.082;2024-01-16T11:00:57;98525.28;;;1.85;54.75
64189;BME280;50493;50.970;10.082;2024-01-16T11:03:26;98526.13;;;1.94;58.92
64189;BME280;50493;50.970;10.082;2024-01-16T11:05:56;98541.56;;;1.33;59.57
64189;BME280;50493;50.970;10.082;2024-01-16T11:08:24;98542.44;;;1.40;56.96
64189;BME280;50493;50.970;10.082;2024-01-16T11:10:56;98540.69;;;1.44;57.11
64189;BME280;50493;50.970;10.082;2024-01-16T11:13:22;98532.16;;;1.66;55.58
64189;BME280;50493;50.970;10.082;2024-01-16T11:15:49;98538.09;;;1.31;60.82
64189;BME280;50493;50.970;10.082;2024-01-16T11:18:16;98535.97;;;0.31;66.71
64189;BME280;50493;50.970;10.082;2024-01-16T11:20:43;98534.69;;;1.42;58.07
64189;BME280;50493;50.970;10.082;2024-01-16T11:23:10;98525.19;;;1.07;64.08
64189;BME280;50493;50.970;10.082;2024-01-16T11:25:37;98530.34;;;1.17;60.49
64189;BME280;50493;50.970;10.082;2024-01-16T11:28:08;98517.56;;;1.90;54.89
64189;BME280;50493;50.970;10.082;2024-01-16T11:30:34;98514.09;;;1.79;53.32
64189;BME280;50493;50.970;10.082;2024-01-16T11:32:59;98514.97;;;1.82;54.43
64189;BME280;50493;50.970;10.082;2024-01-16T11:35:32;98512.38;;;1.65;56.73
64189;BME280;50493;50.970;10.082;2024-01-16T11:38:03;98508.94;;;1.45;60.18
64189;BME280;50493;50.970;10.082;2024-01-16T11:40:32;98494.31;;;2.07;53.10
64189;BME280;50493;50.970;10.082;2024-01-16T11:42:59;98487.47;;;2.06;54.67
64189;BME280;50493;50.970;10.082;2024-01-16T11:45:48;98493.44;;;2.22;53.93
64189;BME280;50493;50.970;10.082;2024-01-16T11:48:14;98486.56;;;2.24;52.32
64189;BME280;50493;50.970;10.082;2024-01-16T11:50:40;98495.22;;;1.83;53.65
64189;BME280;50493;50.970;10.082;2024-01-16T11:53:06;98497.78;;;1.94;57.26
64189;BME280;50493;50.970;10.082;2024-01-16T11:55:33;98490.06;;;1.70;54.69
64189;BME280;50493;50.970;10.082;2024-01-16T11:58:15;98484.06;;;1.37;56.67
64189;BME280;50493;50.970;10.082;2024-01-16T12:00:48;98490.94;;;1.51;60.61
64189;BME280;50493;50.970;10.082;2024-01-16T12:03:18;98479.75;;;1.39;57.52
64189;BME280;50493;50.970;10.082;2024-01-16T12:05:54;98481.50;;;1.78;57.51
64189;BME280;50493;50.970;10.082;2024-01-16T12:08:20;98481.47;;;1.92;57.92
64189;BME280;50493;50.970;10.082;2024-01-16T12:10:46;98473.75;;;1.88;54.48
64189;BME280;50493;50.970;10.082;2024-01-16T12:13:14;98474.63;;;1.67;54.69
64189;BME280;50493;50.970;10.082;2024-01-16T12:15:39;98471.16;;;1.62;56.79
64189;BME280;50493;50.970;10.082;2024-01-16T12:18:06;98474.59;;;1.70;57.46
64189;BME280;50493;50.970;10.082;2024-01-16T12:20:32;98486.63;;;1.59;57.08
64189;BME280;50493;50.970;10.082;2024-01-16T12:22:59;98481.50;;;1.67;59.27
64189;BME280;50493;50.970;10.082;2024-01-16T12:25:25;98475.47;;;1.52;57.07
64189;BME280;50493;50.970;10.082;2024-01-16T12:27:55;98468.53;;;2.13;54.26
64189;BME280;50493;50.970;10.082;2024-01-16T12:30:23;98475.44;;;2.14;51.97
64189;BME280;50493;50.970;10.082;2024-01-16T12:32:48;98476.31;;;1.84;53.90
64189;BME280;50493;50.970;10.082;2024-01-16T12:35:19;98473.75;;;1.62;54.35
64189;BME280;50493;50.970;10.082;2024-01-16T12:37:57;98465.16;;;1.65;55.16
64189;BME280;50493;50.970;10.082;2024-01-16T12:40:22;98458.28;;;1.73;55.16
64189;BME280;50493;50.970;10.082;2024-01-16T12:42:48;98457.38;;;2.00;56.92
64189;BME280;50493;50.970;10.082;2024-01-16T12:45:15;98460.00;;;1.80;52.00
64189;BME280;50493;50.970;10.082;2024-01-16T12:47:43;98459.09;;;2.17;56.39
64189;BME280;50493;50.970;10.082;2024-01-16T12:50:09;98466.00;;;1.22;62.25
64189;BME280;50493;50.970;10.082;2024-01-16T12:52:35;98470.28;;;1.20;64.28
64189;BME280;50493;50.970;10.082;2024-01-16T12:55:01;98456.56;;;1.80;54.08